MROCMNMG

Guest
Details From MROC - San Jose Juan Santamaria Intl
To MNMG - Managua Intl
Flight Number -
Tags generated
Created
Modified
Stats Distance 173 nm / 321 km
Max Altitude 18,000 ft / 5,486 m
Waypoints 3
Social Downloads 7
Likes 0
Share VATSIM

Download

Looking for another format? Having issues loading an existing format? Contact us
Advertisement - Login to hide

Notes

Basic altitude profile: - Ascent Rate: 2500ft/min - Ascent Speed: 250kts - Cruise Altitude: 35000ft - Cruise Speed: 420kts - Descent Rate: 1500ft/min - Descent Speed: 250kts

Route

MROC ULAPO MNMG

ID Type Via Altitude Latitude Longitude Leg Dist Tot Dist Heading (true) Name
O MROC APT - 0 ft / 0 m 9.99393˚ -84.20888˚ - 0 nm - San Jose Juan Santamaria Intl
ULAPO FIX - 18,000 ft / 5,486 m 11.02833˚ -85.17167˚ 84 nm 84 nm 318° / 317° -
O MNMG APT - 0 ft / 0 m 12.14149˚ -86.16818˚ 88 nm 173 nm 319° / 319° Managua Intl

Altitude Profile

Advertisement - Login to hide

Weather


0- 5 10 15 20 25 30 35+ Temperature / ° C

Clouds and Precipitation
Forecast for 2017-12-13 12:00 UTC. Updated 2 hours ago

Ground ~20,000 ft ~40,000 ft Winds

MROC

Details ICAO MROC (SJO)
Name San Jose Juan Santamaria Intl
Region Costa Rica
Timezone America/Costa_Rica (UTC-6.0)
Stats Elevation 3,021 ft / 921 m (AMSL)
Location 9.993927° -84.208884°
Runways 1
Magnetic Variation 1.718° W

METAR

MROC 130800Z 09009KT 060V130 CAVOK 18/14 A3002 NOSIG

Decode

TAF

TAF MROC 122300Z 1300/1324 07010KT 9999 FEW030 TX22/1318Z TN18/1310Z TEMPO 1312/1318 09015G30KT

Decode

Departure Runways

ID Width Length Bearing (true) Bearing (mag) Surface Threshold Offset Overrun Length
07 151 ft / 46 m 9,994 ft / 3,046 m 68.91° 70.63° Asphalt 0 ft / 0 m 200 ft / 61 m
25 151 ft / 46 m 9,994 ft / 3,046 m 248.92° 250.64° Asphalt 1,969 ft / 600 m 200 ft / 61 m

MNMG

Details ICAO MNMG (MGA)
Name Managua Intl
Region Nicaragua
Timezone America/Managua (UTC-6.0)
Stats Elevation 194 ft / 59 m (AMSL)
Location 12.141493° -86.168178°
Runways 1
Magnetic Variation 0.945° W

METAR

Not found

TAF

TAF TAF MNMG 130500Z 1306/1406 10008KT 9999 FEW022 TEMPO 1310/1313 00000KT BECMG 1314/1320 12010KT

Decode

Destination Runways

ID Width Length Bearing (true) Bearing (mag) Surface Threshold Offset Overrun Length
09 148 ft / 45 m 8,008 ft / 2,441 m 96.54° 97.48° Asphalt 0 ft / 0 m 100 ft / 30 m
27 148 ft / 45 m 8,008 ft / 2,441 m 276.55° 277.49° Asphalt 0 ft / 0 m 100 ft / 30 m

Approach Navaids

Runway Type Ident Frequency Range Bearing (true) Bearing (mag) Slope Elevation
09 Localiser IMGA 109.10 MHz 18 nm / 33 km 96.37° 97.32° - 194 ft / 59 m (AMSL)
09 Glidescope IMGA 109.10 MHz 10 nm / 19 km 96.55° 97.49° 3.10° 194 ft / 59 m (AMSL)
09 DME IMGA 109.10 MHz 18 nm / 33 km - - - 194 ft / 59 m (AMSL)

Popular Alternatives